createdAt,value
2023-06-09T05:36:09.831Z,99.70
2023-06-09T05:38:37.022Z,99.90
2023-06-09T05:48:27.094Z,99.70
2023-06-09T05:50:57.788Z,99.40
2023-06-09T05:53:26.097Z,99.60
2023-06-09T05:55:54.914Z,99.30
2023-06-09T05:58:22.246Z,99.90
2023-06-09T06:00:51.680Z,98.70
2023-06-09T06:03:19.032Z,97.80
2023-06-09T06:08:13.992Z,95.60
2023-06-09T06:13:09.364Z,96.50
2023-06-09T06:18:04.243Z,99.90
2023-06-09T06:20:31.810Z,98.20
2023-06-09T06:22:59.619Z,99.90
2023-06-09T06:25:26.786Z,96.60
2023-06-09T06:27:54.176Z,97.40
2023-06-09T06:32:53.399Z,97.90
2023-06-09T06:35:27.902Z,98.20
2023-06-09T06:37:55.911Z,96.70
2023-06-09T06:40:24.017Z,96.20
2023-06-09T06:42:52.368Z,99.90
2023-06-09T06:45:21.694Z,95.80
2023-06-09T06:47:50.946Z,94.10
2023-06-09T06:50:18.454Z,93.20
2023-06-09T06:52:47.080Z,92.30
2023-06-09T06:55:14.230Z,94.10
2023-06-09T06:57:42.260Z,93.70
2023-06-09T07:00:11.577Z,93.40
2023-06-09T07:02:39.428Z,93.80
2023-06-09T07:05:07.902Z,94.30
2023-06-09T07:07:35.406Z,94.20
2023-06-09T07:10:03.155Z,95.90
2023-06-09T07:12:30.399Z,92.30
2023-06-09T07:14:57.898Z,92.60
2023-06-09T07:17:25.238Z,91.40
2023-06-09T07:19:52.523Z,91.60
2023-06-09T07:22:20.071Z,92.00
2023-06-09T07:24:47.870Z,91.90
2023-06-09T07:27:15.487Z,90.20
2023-06-09T07:29:43.851Z,90.90
2023-06-09T07:32:11.915Z,88.00
2023-06-09T07:34:39.631Z,84.90
2023-06-09T07:37:07.168Z,88.30
2023-06-09T07:39:37.568Z,86.20
2023-06-09T07:42:05.087Z,88.50
2023-06-09T07:44:33.573Z,87.00
2023-06-09T07:47:00.960Z,86.40
2023-06-09T07:49:28.125Z,86.50
2023-06-09T07:51:55.313Z,86.20
2023-06-09T07:54:22.783Z,87.20
2023-06-09T07:56:50.732Z,84.20
2023-06-09T07:59:22.192Z,81.00
2023-06-09T08:01:49.359Z,81.50
2023-06-09T08:04:16.834Z,82.30
2023-06-09T08:06:45.214Z,82.50
2023-06-09T08:09:12.476Z,82.10
2023-06-09T08:11:40.141Z,82.90
2023-06-09T08:14:10.033Z,81.00
2023-06-09T08:16:37.269Z,83.40
2023-06-09T08:19:04.510Z,88.80
2023-06-09T08:21:31.940Z,80.80
2023-06-09T08:23:59.295Z,80.00
2023-06-09T08:26:26.666Z,83.90
2023-06-09T08:28:53.844Z,79.20
2023-06-09T08:31:21.590Z,80.10
2023-06-09T08:33:49.039Z,79.70
2023-06-09T08:36:16.398Z,81.00
2023-06-09T08:38:43.863Z,79.20
2023-06-09T08:41:11.681Z,79.20
2023-06-09T08:43:39.062Z,78.60
2023-06-09T08:46:07.686Z,79.50
2023-06-09T08:48:38.621Z,88.40
2023-06-09T08:51:06.302Z,80.70
2023-06-09T08:53:34.066Z,79.00
2023-06-09T08:58:29.598Z,78.30
2023-06-09T09:00:56.939Z,79.10
2023-06-09T09:03:24.414Z,81.40
2023-06-09T09:05:52.813Z,81.10
2023-06-09T09:08:20.940Z,87.00
2023-06-09T09:10:48.344Z,90.80
2023-06-09T09:13:15.796Z,81.70
2023-06-09T09:15:50.344Z,83.10
2023-06-09T09:18:18.808Z,79.80
2023-06-09T09:20:46.168Z,78.90
2023-06-09T09:23:14.916Z,79.00
2023-06-09T09:25:42.883Z,76.40
2023-06-09T09:28:11.835Z,77.80
2023-06-09T09:30:50.792Z,78.10
2023-06-09T09:33:25.496Z,78.90
2023-06-09T09:35:54.875Z,79.00
2023-06-09T09:38:27.038Z,78.90
2023-06-09T09:40:56.595Z,78.40
2023-06-09T09:43:28.505Z,77.40
2023-06-09T09:46:05.865Z,78.20
2023-06-09T09:48:34.341Z,77.70
2023-06-09T09:51:01.802Z,77.90
2023-06-09T09:53:29.078Z,79.40
2023-06-09T09:55:59.146Z,78.10
2023-06-09T09:58:41.272Z,78.40
2023-06-09T10:01:10.084Z,78.50
2023-06-09T10:03:40.216Z,77.10
2023-06-09T10:06:12.504Z,80.30
2023-06-09T10:08:46.058Z,80.10
2023-06-09T10:11:14.121Z,84.10
2023-06-09T10:13:44.428Z,79.20
2023-06-09T10:16:13.701Z,78.70
2023-06-09T10:18:42.183Z,76.20
2023-06-09T10:21:12.036Z,78.90
2023-06-09T10:23:42.307Z,79.40
2023-06-09T10:26:11.382Z,80.30
2023-06-09T10:28:38.749Z,81.60
2023-06-09T10:31:10.470Z,82.20
2023-06-09T10:33:41.388Z,79.20
2023-06-09T10:36:11.435Z,79.70
2023-06-09T10:38:43.945Z,81.60
2023-06-09T10:41:20.602Z,80.60
2023-06-09T10:44:18.588Z,82.00
2023-06-09T10:46:51.668Z,82.60
2023-06-09T10:49:37.377Z,84.10
2023-06-09T10:52:06.608Z,80.90
2023-06-09T10:54:36.359Z,78.50
2023-06-09T10:57:25.651Z,79.70
2023-06-09T10:59:53.481Z,80.00
2023-06-09T11:02:21.253Z,79.20
2023-06-09T11:04:50.355Z,80.80
2023-06-09T11:07:21.816Z,81.10
2023-06-09T11:09:51.799Z,78.70
2023-06-09T11:12:40.100Z,78.50
2023-06-09T11:15:09.201Z,81.00
2023-06-09T11:17:51.484Z,80.50
2023-06-09T11:20:20.970Z,80.30
2023-06-09T11:22:51.360Z,79.30
2023-06-09T11:25:18.761Z,77.20
2023-06-09T11:27:56.602Z,77.10
2023-06-09T11:30:31.786Z,89.10
2023-06-09T11:33:00.705Z,79.80
2023-06-09T11:35:33.584Z,79.30
2023-06-09T11:38:08.685Z,79.80
2023-06-09T11:40:38.557Z,79.10
2023-06-09T11:43:10.128Z,76.80
2023-06-09T11:45:38.049Z,79.90
2023-06-09T11:48:07.597Z,78.30
2023-06-09T11:50:45.936Z,81.10
2023-06-09T11:53:17.618Z,81.40
2023-06-09T11:55:46.780Z,82.80
2023-06-09T11:58:17.048Z,79.40
2023-06-09T12:00:45.887Z,82.40
2023-06-09T12:03:19.793Z,78.50
2023-06-09T12:05:51.302Z,78.90
2023-06-09T12:08:19.520Z,81.50
2023-06-09T12:10:46.867Z,80.90
2023-06-09T12:13:14.614Z,81.60
2023-06-09T12:15:46.446Z,82.70
2023-06-09T12:18:13.740Z,79.20
2023-06-09T12:20:42.339Z,81.10
2023-06-09T12:23:14.898Z,77.60
2023-06-09T12:25:43.089Z,78.50
2023-06-09T12:28:24.169Z,79.00
2023-06-09T12:31:13.383Z,89.70
2023-06-09T12:33:48.119Z,81.00
2023-06-09T12:36:15.445Z,81.70
2023-06-09T12:38:47.247Z,81.80
2023-06-09T12:41:16.639Z,81.70
2023-06-09T12:43:59.991Z,81.50
2023-06-09T12:46:36.820Z,78.40
2023-06-09T12:49:11.463Z,80.50
2023-06-09T12:51:46.954Z,76.40
2023-06-09T12:54:14.814Z,78.40
2023-06-09T12:56:42.198Z,90.70
2023-06-09T12:59:10.366Z,82.00
2023-06-09T13:04:06.219Z,88.50
2023-06-09T13:06:37.511Z,78.30
2023-06-09T13:09:04.774Z,79.20
2023-06-09T13:11:32.553Z,90.50
2023-06-09T13:13:59.794Z,80.50
2023-06-09T13:16:26.968Z,80.00
2023-06-09T13:18:54.293Z,82.30
2023-06-09T13:21:42.483Z,90.40
2023-06-09T13:24:09.305Z,90.00
2023-06-09T13:26:36.633Z,80.00
2023-06-09T13:36:27.397Z,79.50
2023-06-09T13:38:54.920Z,90.20
2023-06-09T13:41:23.667Z,90.40
2023-06-09T13:46:19.529Z,82.20
2023-06-09T13:48:46.954Z,82.30
2023-06-09T13:51:14.327Z,83.30
2023-06-09T13:53:42.222Z,92.00
2023-06-09T13:56:09.464Z,81.40
2023-06-09T13:58:37.487Z,82.40
2023-06-09T14:01:04.891Z,91.20
2023-06-09T14:03:32.249Z,92.20
2023-06-09T14:05:59.607Z,88.60
2023-06-09T14:08:26.937Z,92.40
2023-06-09T14:10:54.128Z,81.50
2023-06-09T14:13:21.433Z,81.70
2023-06-09T14:18:16.282Z,81.10
2023-06-09T14:20:43.574Z,82.60
2023-06-09T14:23:12.410Z,77.90
2023-06-09T14:25:40.440Z,77.90
2023-06-09T14:28:07.745Z,90.10
2023-06-09T14:30:35.588Z,79.30
2023-06-09T14:33:02.980Z,90.00
2023-06-09T14:35:30.311Z,90.80
2023-06-09T14:38:03.384Z,80.60
2023-06-09T14:40:36.952Z,80.40
2023-06-09T14:43:06.884Z,80.40
2023-06-09T14:45:37.513Z,79.90
2023-06-09T14:48:10.514Z,77.90
2023-06-09T14:50:43.121Z,79.70
2023-06-09T14:53:11.864Z,88.50
2023-06-09T14:55:48.118Z,77.40
2023-06-09T14:58:17.343Z,78.20
2023-06-09T15:00:44.996Z,78.20
2023-06-09T15:03:14.554Z,90.50
2023-06-09T15:05:43.525Z,89.80
2023-06-09T15:08:10.956Z,88.40
2023-06-09T15:10:44.061Z,89.90
2023-06-09T15:13:14.059Z,79.30
2023-06-09T15:15:41.677Z,80.10
2023-06-09T15:18:10.570Z,90.10
2023-06-09T15:20:39.503Z,78.90
2023-06-09T15:23:07.705Z,77.80
2023-06-09T15:25:38.353Z,79.10
2023-06-09T15:28:07.857Z,79.50
2023-06-09T15:30:38.176Z,79.10
2023-06-09T15:33:33.444Z,78.70
2023-06-09T15:36:00.882Z,78.10
2023-06-09T15:38:31.000Z,78.10
2023-06-09T15:40:58.281Z,78.80
2023-06-09T15:43:28.505Z,77.60
2023-06-09T15:45:56.835Z,77.60
2023-06-09T15:50:52.279Z,78.20
2023-06-09T15:53:21.386Z,75.10
2023-06-09T15:55:50.875Z,77.90
2023-06-09T15:58:18.611Z,87.70
